sensor_id;sensor_type;location;lat;lon;timestamp;pressure;altitude;pressure_sealevel;temperature;humidity
78317;BME280;67572;50.930;18.276;2023-02-28T00:00:19;100388.34;;;-0.05;56.69
78317;BME280;67572;50.930;18.276;2023-02-28T00:03:23;100390.19;;;-0.29;57.94
78317;BME280;67572;50.930;18.276;2023-02-28T00:06:27;100386.75;;;-0.41;58.70
78317;BME280;67572;50.930;18.276;2023-02-28T00:09:33;100391.91;;;-0.31;56.83
78317;BME280;67572;50.930;18.276;2023-02-28T00:12:37;100392.78;;;-0.27;56.16
78317;BME280;67572;50.930;18.276;2023-02-28T00:15:40;100390.91;;;-0.02;57.24
78317;BME280;67572;50.930;18.276;2023-02-28T00:18:44;100383.09;;;-0.08;56.88
78317;BME280;67572;50.930;18.276;2023-02-28T00:21:49;100382.31;;;-0.25;55.82
78317;BME280;67572;50.930;18.276;2023-02-28T00:24:54;100391.00;;;-0.13;57.67
78317;BME280;67572;50.930;18.276;2023-02-28T00:27:58;100386.59;;;-0.11;58.06
78317;BME280;67572;50.930;18.276;2023-02-28T00:31:02;100388.28;;;0.04;57.50
78317;BME280;67572;50.930;18.276;2023-02-28T00:34:06;100391.81;;;0.00;57.12
78317;BME280;67572;50.930;18.276;2023-02-28T00:37:10;100387.34;;;0.16;56.88
78317;BME280;67572;50.930;18.276;2023-02-28T00:40:16;100386.59;;;-0.06;56.19
78317;BME280;67572;50.930;18.276;2023-02-28T00:43:20;100383.97;;;0.00;56.54
78317;BME280;67572;50.930;18.276;2023-02-28T00:46:23;100384.00;;;-0.11;55.03
78317;BME280;67572;50.930;18.276;2023-02-28T00:49:27;100378.69;;;0.05;55.90
78317;BME280;67572;50.930;18.276;2023-02-28T00:52:31;100373.50;;;-0.08;55.57
78317;BME280;67572;50.930;18.276;2023-02-28T00:55:36;100378.03;;;-0.36;55.80
78317;BME280;67572;50.930;18.276;2023-02-28T00:58:40;100376.19;;;-0.23;54.75
78317;BME280;67572;50.930;18.276;2023-02-28T01:01:46;100373.56;;;-0.12;55.22
78317;BME280;67572;50.930;18.276;2023-02-28T01:04:50;100373.53;;;-0.11;52.35
78317;BME280;67572;50.930;18.276;2023-02-28T01:07:54;100372.72;;;-0.20;53.59
78317;BME280;67572;50.930;18.276;2023-02-28T01:11:07;100369.16;;;-0.04;53.47
78317;BME280;67572;50.930;18.276;2023-02-28T01:14:12;100371.78;;;-0.07;54.73
78317;BME280;67572;50.930;18.276;2023-02-28T01:17:16;100367.28;;;0.18;55.58
78317;BME280;67572;50.930;18.276;2023-02-28T01:20:20;100366.44;;;0.07;56.03
78317;BME280;67572;50.930;18.276;2023-02-28T01:23:23;100368.25;;;-0.03;55.61
78317;BME280;67572;50.930;18.276;2023-02-28T01:26:29;100368.16;;;0.14;54.30
78317;BME280;67572;50.930;18.276;2023-02-28T01:29:33;100355.22;;;-0.06;54.46
78317;BME280;67572;50.930;18.276;2023-02-28T01:32:39;100356.72;;;0.28;52.68
78317;BME280;67572;50.930;18.276;2023-02-28T01:35:42;100356.19;;;-0.24;53.23
78317;BME280;67572;50.930;18.276;2023-02-28T01:38:47;100365.75;;;-0.20;55.58
78317;BME280;67572;50.930;18.276;2023-02-28T01:41:53;100371.97;;;-0.42;58.53
78317;BME280;67572;50.930;18.276;2023-02-28T01:45:18;100370.25;;;-0.45;58.98
78317;BME280;67572;50.930;18.276;2023-02-28T01:48:26;100367.69;;;-0.60;58.71
78317;BME280;67572;50.930;18.276;2023-02-28T01:51:34;100368.63;;;-0.86;57.89
78317;BME280;67572;50.930;18.276;2023-02-28T01:54:41;100357.31;;;-0.89;57.25
78317;BME280;67572;50.930;18.276;2023-02-28T01:57:50;100359.97;;;-0.97;58.72
78317;BME280;67572;50.930;18.276;2023-02-28T02:00:55;100358.25;;;-1.05;58.54
78317;BME280;67572;50.930;18.276;2023-02-28T02:04:03;100362.59;;;-1.15;59.02
78317;BME280;67572;50.930;18.276;2023-02-28T02:07:12;100368.69;;;-1.16;58.38
78317;BME280;67572;50.930;18.276;2023-02-28T02:10:25;100360.84;;;-1.12;59.04
78317;BME280;67572;50.930;18.276;2023-02-28T02:13:45;100360.00;;;-1.27;57.80
78317;BME280;67572;50.930;18.276;2023-02-28T02:17:05;100370.44;;;-1.41;58.29
78317;BME280;67572;50.930;18.276;2023-02-28T02:28:01;100360.03;;;-1.43;59.81
78317;BME280;67572;50.930;18.276;2023-02-28T02:35:56;100368.69;;;-1.70;61.48
78317;BME280;67572;50.930;18.276;2023-02-28T02:39:11;100372.19;;;-1.81;63.84
78317;BME280;67572;50.930;18.276;2023-02-28T02:42:24;100366.94;;;-1.93;65.33
78317;BME280;67572;50.930;18.276;2023-02-28T02:45:33;100364.31;;;-2.01;67.11
78317;BME280;67572;50.930;18.276;2023-02-28T02:48:41;100356.50;;;-2.10;67.78
78317;BME280;67572;50.930;18.276;2023-02-28T02:51:52;100358.19;;;-2.12;68.31
78317;BME280;67572;50.930;18.276;2023-02-28T02:55:00;100353.84;;;-2.13;68.75
78317;BME280;67572;50.930;18.276;2023-02-28T02:58:10;100359.06;;;-2.15;66.49
78317;BME280;67572;50.930;18.276;2023-02-28T03:01:21;100359.03;;;-2.33;66.93
78317;BME280;67572;50.930;18.276;2023-02-28T03:04:35;100362.53;;;-2.22;66.15
78317;BME280;67572;50.930;18.276;2023-02-28T03:07:43;100363.38;;;-2.31;66.95
78317;BME280;67572;50.930;18.276;2023-02-28T03:10:51;100361.66;;;-2.22;67.39
78317;BME280;67572;50.930;18.276;2023-02-28T03:17:47;100371.25;;;-2.08;65.14
78317;BME280;67572;50.930;18.276;2023-02-28T03:20:59;100368.63;;;-2.25;65.92
78317;BME280;67572;50.930;18.276;2023-02-28T03:24:13;100381.56;;;-2.44;66.64
78317;BME280;67572;50.930;18.276;2023-02-28T03:27:26;100377.22;;;-2.48;66.79
78317;BME280;67572;50.930;18.276;2023-02-28T03:30:44;100374.56;;;-2.61;68.19
78317;BME280;67572;50.930;18.276;2023-02-28T03:33:58;100378.81;;;-2.80;67.13
78317;BME280;67572;50.930;18.276;2023-02-28T03:37:07;100380.56;;;-2.78;64.92
78317;BME280;67572;50.930;18.276;2023-02-28T03:40:17;100385.63;;;-2.97;66.44
78317;BME280;67572;50.930;18.276;2023-02-28T03:43:27;100385.75;;;-2.74;67.31
78317;BME280;67572;50.930;18.276;2023-02-28T03:46:36;100376.91;;;-3.07;65.72
78317;BME280;67572;50.930;18.276;2023-02-28T03:49:45;100377.03;;;-2.84;67.37
78317;BME280;67572;50.930;18.276;2023-02-28T03:52:56;100378.75;;;-2.87;67.14
78317;BME280;67572;50.930;18.276;2023-02-28T03:56:11;100376.19;;;-2.84;66.31
78317;BME280;67572;50.930;18.276;2023-02-28T03:59:20;100377.00;;;-2.90;64.30
78317;BME280;67572;50.930;18.276;2023-02-28T04:02:27;100372.56;;;-3.08;67.50
78317;BME280;67572;50.930;18.276;2023-02-28T04:05:46;100364.78;;;-3.03;66.79
78317;BME280;67572;50.930;18.276;2023-02-28T04:08:52;100369.16;;;-3.02;67.88
78317;BME280;67572;50.930;18.276;2023-02-28T04:11:57;100374.34;;;-2.96;67.98
78317;BME280;67572;50.930;18.276;2023-02-28T04:15:02;100375.19;;;-3.04;68.98
78317;BME280;67572;50.930;18.276;2023-02-28T04:18:07;100377.63;;;-3.27;69.33
78317;BME280;67572;50.930;18.276;2023-02-28T04:21:13;100378.38;;;-3.41;69.62
78317;BME280;67572;50.930;18.276;2023-02-28T04:24:20;100377.63;;;-3.29;69.28
78317;BME280;67572;50.930;18.276;2023-02-28T04:27:26;100381.84;;;-3.43;70.00
78317;BME280;67572;50.930;18.276;2023-02-28T04:30:32;100381.97;;;-3.28;68.97
78317;BME280;67572;50.930;18.276;2023-02-28T04:33:36;100379.25;;;-3.42;71.37
78317;BME280;67572;50.930;18.276;2023-02-28T04:36:40;100388.66;;;-3.59;70.04
78317;BME280;67572;50.930;18.276;2023-02-28T04:39:44;100391.25;;;-3.60;71.43
78317;BME280;67572;50.930;18.276;2023-02-28T04:42:49;100394.66;;;-3.69;69.89
78317;BME280;67572;50.930;18.276;2023-02-28T04:45:53;100396.25;;;-3.79;71.01
78317;BME280;67572;50.930;18.276;2023-02-28T04:49:00;100402.38;;;-3.77;71.43
78317;BME280;67572;50.930;18.276;2023-02-28T04:52:04;100399.72;;;-3.78;71.94
78317;BME280;67572;50.930;18.276;2023-02-28T04:55:10;100402.06;;;-4.07;70.74
78317;BME280;67572;50.930;18.276;2023-02-28T04:58:16;100399.66;;;-3.86;70.02
78317;BME280;67572;50.930;18.276;2023-02-28T05:01:23;100398.69;;;-3.96;71.04
78317;BME280;67572;50.930;18.276;2023-02-28T05:04:28;100398.84;;;-3.82;69.41
78317;BME280;67572;50.930;18.276;2023-02-28T05:07:31;100407.28;;;-4.03;71.51
78317;BME280;67572;50.930;18.276;2023-02-28T05:10:35;100405.56;;;-4.02;72.16
78317;BME280;67572;50.930;18.276;2023-02-28T05:13:40;100417.50;;;-4.20;72.93
78317;BME280;67572;50.930;18.276;2023-02-28T05:16:45;100413.09;;;-4.25;72.62
78317;BME280;67572;50.930;18.276;2023-02-28T05:19:49;100415.94;;;-4.04;71.86
78317;BME280;67572;50.930;18.276;2023-02-28T05:22:53;100417.75;;;-3.95;71.10
78317;BME280;67572;50.930;18.276;2023-02-28T05:25:58;100418.59;;;-3.99;70.88
78317;BME280;67572;50.930;18.276;2023-02-28T05:29:05;100423.03;;;-3.89;73.00
78317;BME280;67572;50.930;18.276;2023-02-28T05:32:09;100418.78;;;-3.81;73.74
78317;BME280;67572;50.930;18.276;2023-02-28T05:35:15;100424.84;;;-3.82;73.44
78317;BME280;67572;50.930;18.276;2023-02-28T05:38:19;100421.28;;;-3.90;73.37
78317;BME280;67572;50.930;18.276;2023-02-28T05:41:23;100430.13;;;-3.73;73.05
78317;BME280;67572;50.930;18.276;2023-02-28T05:44:30;100431.25;;;-3.45;73.59
78317;BME280;67572;50.930;18.276;2023-02-28T05:47:35;100437.03;;;-3.75;73.23
78317;BME280;67572;50.930;18.276;2023-02-28T05:50:39;100437.25;;;-3.50;73.08
78317;BME280;67572;50.930;18.276;2023-02-28T05:53:44;100445.94;;;-3.50;72.41
78317;BME280;67572;50.930;18.276;2023-02-28T05:56:48;100445.91;;;-3.51;73.16
78317;BME280;67572;50.930;18.276;2023-02-28T05:59:56;100447.56;;;-3.63;72.76
78317;BME280;67572;50.930;18.276;2023-02-28T06:03:00;100447.63;;;-3.53;73.32
78317;BME280;67572;50.930;18.276;2023-02-28T06:06:05;100447.91;;;-3.24;71.62
78317;BME280;67572;50.930;18.276;2023-02-28T06:09:12;100451.44;;;-3.12;68.85
78317;BME280;67572;50.930;18.276;2023-02-28T06:12:15;100452.13;;;-3.37;69.45
78317;BME280;67572;50.930;18.276;2023-02-28T06:15:21;100453.97;;;-3.21;69.90
78317;BME280;67572;50.930;18.276;2023-02-28T06:18:24;100463.47;;;-3.27;71.01
78317;BME280;67572;50.930;18.276;2023-02-28T06:21:29;100457.44;;;-3.19;71.24
78317;BME280;67572;50.930;18.276;2023-02-28T06:24:33;100467.03;;;-3.15;71.51
78317;BME280;67572;50.930;18.276;2023-02-28T06:27:37;100474.16;;;-2.89;72.95
78317;BME280;67572;50.930;18.276;2023-02-28T06:30:43;100470.94;;;-2.53;70.11
78317;BME280;67572;50.930;18.276;2023-02-28T06:33:48;100478.78;;;-2.42;68.08
78317;BME280;67572;50.930;18.276;2023-02-28T06:36:53;100477.72;;;-2.75;69.98
78317;BME280;67572;50.930;18.276;2023-02-28T06:39:57;100483.06;;;-2.55;70.24
78317;BME280;67572;50.930;18.276;2023-02-28T06:43:01;100486.59;;;-2.44;68.72
78317;BME280;67572;50.930;18.276;2023-02-28T06:46:10;100484.91;;;-2.39;70.52
78317;BME280;67572;50.930;18.276;2023-02-28T06:49:17;100486.78;;;-2.10;69.46
78317;BME280;67572;50.930;18.276;2023-02-28T06:52:21;100483.44;;;-1.73;68.21
78317;BME280;67572;50.930;18.276;2023-02-28T06:55:26;100486.84;;;-1.90;68.47
78317;BME280;67572;50.930;18.276;2023-02-28T06:58:31;100487.75;;;-1.79;68.79
78317;BME280;67572;50.930;18.276;2023-02-28T07:01:37;100479.91;;;-1.82;68.17
78317;BME280;67572;50.930;18.276;2023-02-28T07:04:41;100485.16;;;-1.79;68.87
78317;BME280;67572;50.930;18.276;2023-02-28T07:07:47;100486.91;;;-1.68;68.61
78317;BME280;67572;50.930;18.276;2023-02-28T07:10:52;100493.88;;;-1.62;70.00
78317;BME280;67572;50.930;18.276;2023-02-28T07:13:57;100489.53;;;-1.66;70.55
78317;BME280;67572;50.930;18.276;2023-02-28T07:17:02;100490.44;;;-1.56;68.78
78317;BME280;67572;50.930;18.276;2023-02-28T07:20:07;100483.47;;;-1.48;68.74
78317;BME280;67572;50.930;18.276;2023-02-28T07:23:11;100493.97;;;-1.19;66.88
78317;BME280;67572;50.930;18.276;2023-02-28T07:26:17;100491.34;;;-0.99;64.99
78317;BME280;67572;50.930;18.276;2023-02-28T07:29:21;100487.88;;;-1.04;63.20
78317;BME280;67572;50.930;18.276;2023-02-28T07:32:26;100483.50;;;-1.07;61.71
78317;BME280;67572;50.930;18.276;2023-02-28T07:35:31;100485.25;;;-0.94;60.39
78317;BME280;67572;50.930;18.276;2023-02-28T07:38:36;100486.13;;;-0.95;59.02
78317;BME280;67572;50.930;18.276;2023-02-28T07:41:41;100491.34;;;-0.82;57.46
78317;BME280;67572;50.930;18.276;2023-02-28T07:44:47;100493.06;;;-0.63;58.86
78317;BME280;67572;50.930;18.276;2023-02-28T07:47:52;100488.69;;;-0.63;58.58
78317;BME280;67572;50.930;18.276;2023-02-28T07:50:58;100498.25;;;-0.56;56.30
78317;BME280;67572;50.930;18.276;2023-02-28T07:54:03;100490.41;;;-0.48;56.11
78317;BME280;67572;50.930;18.276;2023-02-28T07:57:07;100491.28;;;-0.43;57.18
78317;BME280;67572;50.930;18.276;2023-02-28T08:00:12;100481.69;;;-0.39;56.85
78317;BME280;67572;50.930;18.276;2023-02-28T08:03:18;100479.91;;;-0.25;53.48
78317;BME280;67572;50.930;18.276;2023-02-28T08:06:23;100479.91;;;-0.20;53.60
78317;BME280;67572;50.930;18.276;2023-02-28T08:09:27;100478.13;;;-0.23;54.11
78317;BME280;67572;50.930;18.276;2023-02-28T08:12:33;100478.09;;;-0.11;54.13
78317;BME280;67572;50.930;18.276;2023-02-28T08:15:37;100471.97;;;0.01;51.87
78317;BME280;67572;50.930;18.276;2023-02-28T08:18:42;100471.94;;;0.04;51.18
78317;BME280;67572;50.930;18.276;2023-02-28T08:21:47;100472.78;;;0.15;51.50
78317;BME280;67572;50.930;18.276;2023-02-28T08:24:51;100469.25;;;0.24;52.13
78317;BME280;67572;50.930;18.276;2023-02-28T08:27:55;100470.13;;;0.18;50.60
78317;BME280;67572;50.930;18.276;2023-02-28T08:30:59;100468.28;;;0.36;49.94
78317;BME280;67572;50.930;18.276;2023-02-28T08:34:06;100472.63;;;0.37;51.64
78317;BME280;67572;50.930;18.276;2023-02-28T08:37:10;100471.84;;;0.25;51.40
78317;BME280;67572;50.930;18.276;2023-02-28T08:40:14;100467.34;;;0.49;50.03
78317;BME280;67572;50.930;18.276;2023-02-28T08:43:20;100476.22;;;0.23;50.19
78317;BME280;67572;50.930;18.276;2023-02-28T08:46:24;100471.91;;;0.07;49.43
78317;BME280;67572;50.930;18.276;2023-02-28T08:49:29;100474.34;;;0.42;51.13
78317;BME280;67572;50.930;18.276;2023-02-28T08:52:34;100471.66;;;0.56;48.83
78317;BME280;67572;50.930;18.276;2023-02-28T08:55:39;100474.44;;;0.28;50.18
78317;BME280;67572;50.930;18.276;2023-02-28T08:58:43;100473.50;;;0.42;50.98
78317;BME280;67572;50.930;18.276;2023-02-28T09:01:47;100481.47;;;0.17;50.13
78317;BME280;67572;50.930;18.276;2023-02-28T09:04:53;100467.34;;;0.44;51.82
78317;BME280;67572;50.930;18.276;2023-02-28T09:07:57;100471.63;;;0.62;50.20
78317;BME280;67572;50.930;18.276;2023-02-28T09:11:01;100471.47;;;0.85;53.03
78317;BME280;67572;50.930;18.276;2023-02-28T09:14:05;100476.00;;;0.62;51.18
78317;BME280;67572;50.930;18.276;2023-02-28T09:17:09;100476.00;;;0.57;51.25
78317;BME280;67572;50.930;18.276;2023-02-28T09:20:14;100472.50;;;0.63;50.99
78317;BME280;67572;50.930;18.276;2023-02-28T09:23:18;100469.00;;;0.64;50.13
78317;BME280;67572;50.930;18.276;2023-02-28T09:26:23;100461.03;;;0.74;50.11
78317;BME280;67572;50.930;18.276;2023-02-28T09:29:28;100465.41;;;0.74;49.55
78317;BME280;67572;50.930;18.276;2023-02-28T09:32:31;100464.50;;;0.81;50.26
78317;BME280;67572;50.930;18.276;2023-02-28T09:35:37;100467.72;;;1.12;48.83
78317;BME280;67572;50.930;18.276;2023-02-28T09:38:41;100465.97;;;1.13;49.93
78317;BME280;67572;50.930;18.276;2023-02-28T09:41:47;100467.69;;;1.17;49.81
78317;BME280;67572;50.930;18.276;2023-02-28T09:44:58;100474.63;;;1.22;49.74
78317;BME280;67572;50.930;18.276;2023-02-28T09:48:09;100470.34;;;1.14;48.95
78317;BME280;67572;50.930;18.276;2023-02-28T09:51:29;100474.56;;;1.27;49.06
78317;BME280;67572;50.930;18.276;2023-02-28T09:54:33;100475.69;;;1.86;48.41
78317;BME280;67572;50.930;18.276;2023-02-28T09:57:40;100473.69;;;2.08;49.13
78317;BME280;67572;50.930;18.276;2023-02-28T10:00:54;100471.13;;;2.05;49.43
78317;BME280;67572;50.930;18.276;2023-02-28T10:04:08;100471.69;;;2.25;50.09
78317;BME280;67572;50.930;18.276;2023-02-28T10:07:24;100477.69;;;2.36;49.89
78317;BME280;67572;50.930;18.276;2023-02-28T10:10:35;100473.59;;;2.15;48.05
78317;BME280;67572;50.930;18.276;2023-02-28T10:13:51;100482.41;;;2.08;47.99
78317;BME280;67572;50.930;18.276;2023-02-28T10:17:00;100475.41;;;2.09;47.53
78317;BME280;67572;50.930;18.276;2023-02-28T10:20:12;100477.38;;;2.58;47.31
78317;BME280;67572;50.930;18.276;2023-02-28T10:23:21;100476.28;;;2.71;46.95
78317;BME280;67572;50.930;18.276;2023-02-28T10:26:26;100472.19;;;3.09;46.70
78317;BME280;67572;50.930;18.276;2023-02-28T10:29:33;100474.53;;;2.71;45.45
78317;BME280;67572;50.930;18.276;2023-02-28T10:32:38;100466.03;;;2.54;47.05
78317;BME280;67572;50.930;18.276;2023-02-28T10:35:45;100466.41;;;2.87;45.86
78317;BME280;67572;50.930;18.276;2023-02-28T10:38:50;100473.78;;;3.19;45.59
78317;BME280;67572;50.930;18.276;2023-02-28T10:41:54;100467.13;;;3.47;45.47
78317;BME280;67572;50.930;18.276;2023-02-28T10:45:12;100468.28;;;3.32;46.45
78317;BME280;67572;50.930;18.276;2023-02-28T10:48:29;100461.47;;;3.69;46.13
78317;BME280;67572;50.930;18.276;2023-02-28T10:51:36;100460.03;;;3.97;46.14
78317;BME280;67572;50.930;18.276;2023-02-28T10:54:41;100452.97;;;3.54;46.06
78317;BME280;67572;50.930;18.276;2023-02-28T10:57:47;100455.34;;;3.68;44.55
78317;BME280;67572;50.930;18.276;2023-02-28T11:00:52;100459.16;;;3.97;45.40
78317;BME280;67572;50.930;18.276;2023-02-28T11:03:56;100450.59;;;3.87;46.65
78317;BME280;67572;50.930;18.276;2023-02-28T11:07:04;100455.88;;;3.39;46.42
78317;BME280;67572;50.930;18.276;2023-02-28T11:10:18;100454.97;;;3.42;46.70
78317;BME280;67572;50.930;18.276;2023-02-28T11:13:28;100452.09;;;3.55;46.67
78317;BME280;67572;50.930;18.276;2023-02-28T11:16:34;100454.75;;;3.52;46.76
78317;BME280;67572;50.930;18.276;2023-02-28T11:19:45;100456.53;;;3.97;44.81
78317;BME280;67572;50.930;18.276;2023-02-28T11:22:51;100447.56;;;4.05;45.08
78317;BME280;67572;50.930;18.276;2023-02-28T11:25:59;100452.16;;;3.96;46.26
78317;BME280;67572;50.930;18.276;2023-02-28T11:29:16;100445.00;;;4.02;45.03
78317;BME280;67572;50.930;18.276;2023-02-28T11:32:25;100439.59;;;4.10;44.53
78317;BME280;67572;50.930;18.276;2023-02-28T11:35:34;100439.13;;;3.89;44.81
78317;BME280;67572;50.930;18.276;2023-02-28T11:38:42;100439.00;;;4.36;45.47
78317;BME280;67572;50.930;18.276;2023-02-28T11:42:00;100436.72;;;4.21;44.47
78317;BME280;67572;50.930;18.276;2023-02-28T11:45:19;100426.38;;;4.50;44.86
78317;BME280;67572;50.930;18.276;2023-02-28T11:48:32;100433.03;;;4.66;43.49
78317;BME280;67572;50.930;18.276;2023-02-28T11:51:48;100433.50;;;3.65;43.87
78317;BME280;67572;50.930;18.276;2023-02-28T11:55:09;100425.97;;;4.30;44.33
78317;BME280;67572;50.930;18.276;2023-02-28T11:58:29;100427.38;;;4.82;42.77
78317;BME280;67572;50.930;18.276;2023-02-28T12:02:03;100428.06;;;4.90;41.97
78317;BME280;67572;50.930;18.276;2023-02-28T12:05:20;100422.16;;;4.43;43.34
78317;BME280;67572;50.930;18.276;2023-02-28T12:08:43;100419.41;;;4.10;43.35
78317;BME280;67572;50.930;18.276;2023-02-28T12:11:53;100413.69;;;4.67;44.05
78317;BME280;67572;50.930;18.276;2023-02-28T12:15:13;100404.91;;;4.67;42.38
78317;BME280;67572;50.930;18.276;2023-02-28T12:18:37;100409.38;;;5.00;44.07
78317;BME280;67572;50.930;18.276;2023-02-28T12:22:02;100390.25;;;4.91;42.31
78317;BME280;67572;50.930;18.276;2023-02-28T12:25:24;100388.16;;;5.38;42.61
78317;BME280;67572;50.930;18.276;2023-02-28T12:28:40;100388.88;;;5.44;43.03
78317;BME280;67572;50.930;18.276;2023-02-28T12:31:51;100390.25;;;4.92;42.42
78317;BME280;67572;50.930;18.276;2023-02-28T12:35:02;100393.34;;;5.08;41.41
78317;BME280;67572;50.930;18.276;2023-02-28T12:38:14;100385.25;;;5.47;40.73
78317;BME280;67572;50.930;18.276;2023-02-28T12:41:40;100381.56;;;6.15;41.40
78317;BME280;67572;50.930;18.276;2023-02-28T12:44:50;100368.72;;;5.09;42.01
78317;BME280;67572;50.930;18.276;2023-02-28T12:48:02;100374.53;;;5.20;42.41
78317;BME280;67572;50.930;18.276;2023-02-28T12:51:10;100374.38;;;5.89;41.61
78317;BME280;67572;50.930;18.276;2023-02-28T12:54:24;100367.97;;;5.37;42.71
78317;BME280;67572;50.930;18.276;2023-02-28T12:57:34;100364.53;;;4.66;43.00
78317;BME280;67572;50.930;18.276;2023-02-28T13:00:54;100368.84;;;5.36;42.40
78317;BME280;67572;50.930;18.276;2023-02-28T13:04:36;100367.13;;;5.02;42.81
78317;BME280;67572;50.930;18.276;2023-02-28T13:11:48;100362.06;;;4.94;42.54
78317;BME280;67572;50.930;18.276;2023-02-28T13:15:05;100362.75;;;5.65;43.65
78317;BME280;67572;50.930;18.276;2023-02-28T13:18:33;100365.06;;;5.15;42.23
78317;BME280;67572;50.930;18.276;2023-02-28T13:21:43;100366.72;;;5.17;41.90
78317;BME280;67572;50.930;18.276;2023-02-28T13:24:53;100370.56;;;5.38;44.82
78317;BME280;67572;50.930;18.276;2023-02-28T13:28:03;100367.44;;;4.90;44.35
78317;BME280;67572;50.930;18.276;2023-02-28T13:31:14;100358.59;;;4.58;44.05
78317;BME280;67572;50.930;18.276;2023-02-28T13:34:19;100361.31;;;4.55;45.17
78317;BME280;67572;50.930;18.276;2023-02-28T13:37:42;100361.63;;;5.11;44.83
78317;BME280;67572;50.930;18.276;2023-02-28T13:40:49;100364.41;;;5.07;44.96
78317;BME280;67572;50.930;18.276;2023-02-28T13:44:02;100357.19;;;4.43;43.93
78317;BME280;67572;50.930;18.276;2023-02-28T13:47:24;100347.59;;;4.77;45.07
78317;BME280;67572;50.930;18.276;2023-02-28T13:50:34;100346.59;;;4.81;42.95
78317;BME280;67572;50.930;18.276;2023-02-28T13:54:00;100339.72;;;4.41;44.49
78317;BME280;67572;50.930;18.276;2023-02-28T13:57:22;100351.13;;;4.76;44.76
78317;BME280;67572;50.930;18.276;2023-02-28T14:00:41;100350.72;;;4.91;42.84
78317;BME280;67572;50.930;18.276;2023-02-28T14:04:21;100350.97;;;5.16;43.54
78317;BME280;67572;50.930;18.276;2023-02-28T14:07:40;100346.41;;;4.54;43.69
78317;BME280;67572;50.930;18.276;2023-02-28T14:11:04;100338.41;;;4.93;45.08
78317;BME280;67572;50.930;18.276;2023-02-28T14:14:09;100332.97;;;4.99;43.97
78317;BME280;67572;50.930;18.276;2023-02-28T14:17:37;100334.59;;;4.35;46.91
78317;BME280;67572;50.930;18.276;2023-02-28T14:20:43;100336.53;;;4.27;45.63
78317;BME280;67572;50.930;18.276;2023-02-28T14:27:35;100344.31;;;3.52;46.31
78317;BME280;67572;50.930;18.276;2023-02-28T14:31:00;100339.34;;;3.80;48.03
78317;BME280;67572;50.930;18.276;2023-02-28T14:34:21;100341.53;;;4.37;46.72
78317;BME280;67572;50.930;18.276;2023-02-28T14:37:33;100332.38;;;4.54;45.44
78317;BME280;67572;50.930;18.276;2023-02-28T14:40:40;100327.19;;;3.75;46.11
78317;BME280;67572;50.930;18.276;2023-02-28T14:43:52;100335.25;;;3.67;46.83
78317;BME280;67572;50.930;18.276;2023-02-28T14:46:59;100340.09;;;3.87;47.47
78317;BME280;67572;50.930;18.276;2023-02-28T14:50:18;100336.03;;;3.72;48.94
78317;BME280;67572;50.930;18.276;2023-02-28T14:53:27;100336.66;;;3.42;50.64
78317;BME280;67572;50.930;18.276;2023-02-28T14:56:36;100335.41;;;3.59;47.68
78317;BME280;67572;50.930;18.276;2023-02-28T14:59:42;100330.97;;;3.61;48.46
78317;BME280;67572;50.930;18.276;2023-02-28T15:02:47;100329.47;;;3.50;48.50
78317;BME280;67572;50.930;18.276;2023-02-28T15:05:54;100327.06;;;3.39;49.29
78317;BME280;67572;50.930;18.276;2023-02-28T15:09:17;100322.28;;;3.15;49.50
78317;BME280;67572;50.930;18.276;2023-02-28T15:12:24;100326.03;;;3.03;50.55
78317;BME280;67572;50.930;18.276;2023-02-28T15:15:39;100313.88;;;2.97;50.10
78317;BME280;67572;50.930;18.276;2023-02-28T15:19:05;100328.59;;;2.58;50.75
78317;BME280;67572;50.930;18.276;2023-02-28T15:22:15;100327.03;;;2.46;51.46
78317;BME280;67572;50.930;18.276;2023-02-28T15:25:22;100323.94;;;2.74;51.43
78317;BME280;67572;50.930;18.276;2023-02-28T15:28:28;100322.94;;;2.30;53.31
78317;BME280;67572;50.930;18.276;2023-02-28T15:31:39;100325.31;;;2.45;52.50
78317;BME280;67572;50.930;18.276;2023-02-28T15:35:20;100322.75;;;2.41;52.74
78317;BME280;67572;50.930;18.276;2023-02-28T15:38:26;100323.22;;;2.12;53.33
78317;BME280;67572;50.930;18.276;2023-02-28T15:41:36;100315.59;;;1.97;53.99
78317;BME280;67572;50.930;18.276;2023-02-28T15:44:42;100324.94;;;2.14;54.86
78317;BME280;67572;50.930;18.276;2023-02-28T15:47:50;100317.31;;;1.96;54.60
78317;BME280;67572;50.930;18.276;2023-02-28T15:51:04;100316.03;;;2.23;54.18
78317;BME280;67572;50.930;18.276;2023-02-28T15:54:15;100319.06;;;1.97;54.24
78317;BME280;67572;50.930;18.276;2023-02-28T15:57:27;100308.66;;;1.91;54.79
78317;BME280;67572;50.930;18.276;2023-02-28T16:00:34;100315.69;;;1.87;55.28
78317;BME280;67572;50.930;18.276;2023-02-28T16:03:44;100315.84;;;1.78;55.94
78317;BME280;67572;50.930;18.276;2023-02-28T16:07:00;100317.69;;;1.70;55.36
78317;BME280;67572;50.930;18.276;2023-02-28T16:10:08;100322.06;;;1.70;55.95
78317;BME280;67572;50.930;18.276;2023-02-28T16:13:14;100319.63;;;1.59;56.48
78317;BME280;67572;50.930;18.276;2023-02-28T16:16:24;100321.47;;;1.49;57.20
78317;BME280;67572;50.930;18.276;2023-02-28T16:19:34;100318.06;;;1.44;57.26
78317;BME280;67572;50.930;18.276;2023-02-28T16:22:40;100328.63;;;1.35;57.82
78317;BME280;67572;50.930;18.276;2023-02-28T16:25:48;100328.66;;;1.32;57.62
78317;BME280;67572;50.930;18.276;2023-02-28T16:28:55;100332.47;;;1.06;58.30
78317;BME280;67572;50.930;18.276;2023-02-28T16:32:05;100333.34;;;1.07;58.64
78317;BME280;67572;50.930;18.276;2023-02-28T16:35:17;100347.41;;;0.95;58.19
78317;BME280;67572;50.930;18.276;2023-02-28T16:38:30;100345.81;;;0.83;58.89
78317;BME280;67572;50.930;18.276;2023-02-28T16:41:46;100342.31;;;0.81;59.63
78317;BME280;67572;50.930;18.276;2023-02-28T16:44:57;100344.16;;;0.70;59.77